Newtown, Connecticut
Current Conditions -  °F | °C
As of 11:53 PM on Saturday 25 Oct 2014 (Local Time) from KDXR Reporting Station
Light Rain Light Rain  
Wind Chill: 57°   Ceiling: 5000
Heat Index: 57°   Visibility: 6mi
Dew Point: 44°   Wind: 8mph
Humidity: 62%   Direction: 250°WSW
Pressure: 29.58"   Gusts: NA
Location:  41.41°N, 73.3°W
Report Text: KDXR 260353Z AUTO 25007KT 6SM -RA BKN050 OVC065 14/07 A2958 RMK AO2 RAB04E14B49 SLP016 P0001 T01390067
Loading
Personal Weather Stations






























Interactive Weather Map New forecast layout! Learn more

10-Day Weather Forecast

Advertisements
Track Severe Weather on mobile